createdAt,value
2017-12-20T00:01:19.028Z,20.10
2017-12-20T00:03:47.199Z,20.10
2017-12-20T00:06:15.394Z,20.00
2017-12-20T00:08:43.626Z,20.00
2017-12-20T00:11:13.042Z,19.80
2017-12-20T00:13:41.240Z,19.80
2017-12-20T00:16:09.579Z,19.80
2017-12-20T00:18:37.872Z,19.70
2017-12-20T00:21:06.618Z,19.70
2017-12-20T00:23:34.792Z,19.60
2017-12-20T00:26:03.036Z,19.60
2017-12-20T00:28:31.208Z,19.50
2017-12-20T00:30:59.379Z,19.50
2017-12-20T00:33:27.612Z,19.50
2017-12-20T00:35:56.644Z,19.30
2017-12-20T00:38:24.930Z,19.30
2017-12-20T00:40:53.335Z,19.30
2017-12-20T00:43:21.536Z,19.30
2017-12-20T00:45:49.836Z,19.20
2017-12-20T00:48:18.760Z,19.20
2017-12-20T00:50:46.930Z,19.20
2017-12-20T00:53:15.307Z,19.10
2017-12-20T00:55:43.475Z,19.10
2017-12-20T00:58:11.678Z,19.10
2017-12-20T01:00:39.848Z,19.00
2017-12-20T01:03:08.027Z,19.00
2017-12-20T01:05:36.247Z,19.00
2017-12-20T01:08:05.394Z,18.90
2017-12-20T01:10:33.579Z,18.90
2017-12-20T01:13:01.764Z,18.90
2017-12-20T01:15:29.940Z,18.80
2017-12-20T01:17:58.340Z,18.80
2017-12-20T01:20:27.262Z,18.80
2017-12-20T01:22:55.772Z,18.80
2017-12-20T01:25:24.000Z,18.80
2017-12-20T01:27:53.259Z,18.70
2017-12-20T01:30:21.454Z,18.70
2017-12-20T01:32:51.091Z,18.60
2017-12-20T01:35:19.292Z,18.60
2017-12-20T01:37:47.453Z,18.60
2017-12-20T01:40:15.839Z,18.60
2017-12-20T01:42:44.016Z,18.60
2017-12-20T01:45:12.396Z,18.50
2017-12-20T01:47:40.580Z,18.50
2017-12-20T01:50:08.759Z,18.50
2017-12-20T01:52:37.034Z,18.50
2017-12-20T01:55:05.206Z,18.50
2017-12-20T01:57:33.774Z,18.50
2017-12-20T02:00:02.208Z,18.50
2017-12-20T02:02:31.175Z,18.40
2017-12-20T02:04:59.372Z,18.40
2017-12-20T02:07:27.533Z,18.40
2017-12-20T02:09:55.709Z,18.40
2017-12-20T02:12:23.884Z,18.40
2017-12-20T02:14:52.643Z,18.40
2017-12-20T02:17:21.119Z,18.40
2017-12-20T02:19:49.330Z,18.40
2017-12-20T02:22:17.478Z,18.40
2017-12-20T02:24:45.666Z,18.30
2017-12-20T02:27:13.904Z,18.30
2017-12-20T02:29:42.078Z,18.30
2017-12-20T02:32:10.290Z,18.30
2017-12-20T02:34:38.796Z,18.30
2017-12-20T02:37:07.762Z,18.20
2017-12-20T02:39:36.209Z,18.20
2017-12-20T02:42:08.142Z,18.20
2017-12-20T02:44:36.576Z,18.20
2017-12-20T02:47:04.494Z,18.10
2017-12-20T02:49:33.679Z,18.10
2017-12-20T02:52:01.836Z,18.10
2017-12-20T02:54:30.242Z,18.10
2017-12-20T02:56:58.666Z,18.10
2017-12-20T02:59:26.818Z,18.10
2017-12-20T03:01:55.237Z,18.10
2017-12-20T03:04:23.615Z,18.10
2017-12-20T03:06:51.804Z,18.10
2017-12-20T03:09:19.996Z,18.10
2017-12-20T03:11:48.166Z,18.10
2017-12-20T03:14:16.464Z,18.00
2017-12-20T03:16:45.426Z,18.00
2017-12-20T03:19:13.592Z,18.00
2017-12-20T03:21:41.885Z,18.00
2017-12-20T03:24:10.328Z,18.00
2017-12-20T03:26:38.507Z,18.00
2017-12-20T03:29:06.688Z,18.00
2017-12-20T03:31:34.858Z,18.00
2017-12-20T03:34:03.175Z,18.00
2017-12-20T03:36:31.328Z,18.00
2017-12-20T03:38:59.505Z,18.00
2017-12-20T03:41:27.692Z,18.00
2017-12-20T03:43:56.005Z,18.00
2017-12-20T03:46:24.184Z,18.00
2017-12-20T03:48:52.348Z,18.00
2017-12-20T03:51:21.288Z,18.00
2017-12-20T03:53:49.503Z,17.90
2017-12-20T03:56:18.508Z,17.90
2017-12-20T03:58:46.658Z,17.90
2017-12-20T04:01:15.726Z,17.90
2017-12-20T04:03:43.936Z,17.90
2017-12-20T04:06:13.010Z,17.90
2017-12-20T04:08:41.171Z,17.90
2017-12-20T04:11:09.342Z,17.90
2017-12-20T04:13:37.525Z,17.90
2017-12-20T04:16:05.846Z,17.90
2017-12-20T04:18:34.056Z,17.80
2017-12-20T04:21:02.246Z,17.80
2017-12-20T04:23:30.488Z,17.80
2017-12-20T04:25:58.711Z,17.80
2017-12-20T04:28:26.899Z,17.80
2017-12-20T04:30:55.069Z,17.80
2017-12-20T04:33:23.245Z,17.80
2017-12-20T04:35:52.359Z,17.80
2017-12-20T04:38:21.728Z,17.80
2017-12-20T04:40:49.904Z,17.80
2017-12-20T04:43:18.075Z,17.80
2017-12-20T04:45:46.258Z,17.80
2017-12-20T04:48:14.890Z,17.80
2017-12-20T04:50:42.966Z,17.80
2017-12-20T04:53:11.144Z,17.80
2017-12-20T04:55:39.304Z,17.80
2017-12-20T04:58:07.487Z,17.80
2017-12-20T05:00:35.695Z,17.80
2017-12-20T05:03:03.911Z,17.80
2017-12-20T05:05:32.846Z,17.80
2017-12-20T05:08:01.516Z,17.70
2017-12-20T05:10:29.696Z,17.70
2017-12-20T05:12:57.891Z,17.80
2017-12-20T05:15:26.084Z,17.70
2017-12-20T05:17:54.379Z,17.70
2017-12-20T05:20:23.848Z,17.70
2017-12-20T05:22:52.131Z,17.70
2017-12-20T05:25:20.301Z,17.70
2017-12-20T05:27:48.508Z,17.70
2017-12-20T05:30:17.192Z,17.70
2017-12-20T05:32:46.137Z,17.70
2017-12-20T05:35:14.676Z,17.70
2017-12-20T05:37:43.633Z,17.70
2017-12-20T05:40:11.881Z,17.70
2017-12-20T05:42:40.038Z,17.70
2017-12-20T05:45:08.218Z,17.70
2017-12-20T05:47:36.524Z,17.70
2017-12-20T05:50:04.917Z,17.70
2017-12-20T05:52:33.368Z,17.70
2017-12-20T05:55:01.527Z,17.70
2017-12-20T05:57:29.721Z,17.70
2017-12-20T05:59:57.893Z,17.70
2017-12-20T06:02:26.326Z,17.70
2017-12-20T06:04:54.750Z,17.70
2017-12-20T06:07:23.068Z,17.80
2017-12-20T06:09:51.443Z,17.70
2017-12-20T06:12:19.627Z,17.80
2017-12-20T06:14:48.018Z,17.70
2017-12-20T06:17:17.215Z,17.80
2017-12-20T06:19:45.388Z,17.70
2017-12-20T06:22:13.569Z,17.80
2017-12-20T06:24:42.496Z,17.80
2017-12-20T06:27:10.898Z,17.80
2017-12-20T06:29:39.088Z,17.80
2017-12-20T06:32:07.504Z,17.80
2017-12-20T06:34:36.530Z,17.70
2017-12-20T06:37:04.865Z,17.70
2017-12-20T06:39:34.144Z,17.70
2017-12-20T06:42:02.304Z,17.70
2017-12-20T06:44:30.515Z,17.70
2017-12-20T06:46:59.469Z,17.70
2017-12-20T06:49:27.934Z,17.70
2017-12-20T06:51:56.251Z,17.70
2017-12-20T06:54:24.955Z,17.70
2017-12-20T06:56:53.889Z,17.70
2017-12-20T06:59:22.329Z,17.80
2017-12-20T07:01:51.291Z,17.80
2017-12-20T07:04:20.207Z,17.80
2017-12-20T07:06:48.479Z,17.80
2017-12-20T07:09:16.775Z,17.80
2017-12-20T07:11:45.733Z,17.80
2017-12-20T07:14:13.942Z,17.80
2017-12-20T07:16:42.886Z,17.80
2017-12-20T07:19:10.896Z,17.80
2017-12-20T07:21:39.851Z,17.80
2017-12-20T07:24:08.006Z,17.80
2017-12-20T07:26:36.183Z,17.80
2017-12-20T07:29:04.367Z,17.80
2017-12-20T07:31:32.534Z,17.80
2017-12-20T07:34:00.724Z,17.80
2017-12-20T07:36:30.358Z,17.80
2017-12-20T07:38:58.524Z,17.80
2017-12-20T07:41:26.700Z,17.80
2017-12-20T07:43:54.883Z,17.80
2017-12-20T07:46:23.053Z,17.80
2017-12-20T07:48:51.992Z,17.80
2017-12-20T07:51:20.180Z,17.80
2017-12-20T07:53:48.404Z,17.80
2017-12-20T07:56:17.380Z,17.80
2017-12-20T07:58:46.083Z,17.80
2017-12-20T08:01:14.306Z,17.80
2017-12-20T08:03:42.539Z,17.70
2017-12-20T08:06:11.510Z,17.60
2017-12-20T08:08:39.758Z,17.60
2017-12-20T08:11:07.746Z,17.30
2017-12-20T08:13:35.898Z,16.40
2017-12-20T08:16:04.072Z,15.20
2017-12-20T08:18:32.251Z,14.10
2017-12-20T08:21:00.438Z,13.20
2017-12-20T08:23:28.604Z,12.40
2017-12-20T08:25:56.786Z,11.80
2017-12-20T08:28:24.946Z,11.20
2017-12-20T08:30:53.163Z,10.70
2017-12-20T08:33:21.555Z,10.40
2017-12-20T08:35:50.498Z,9.70
2017-12-20T08:38:18.976Z,9.70
2017-12-20T08:40:47.545Z,9.50
2017-12-20T08:43:15.721Z,9.30
2017-12-20T08:45:44.265Z,9.10
2017-12-20T08:48:13.202Z,8.90
2017-12-20T08:50:41.836Z,8.90
2017-12-20T08:53:09.999Z,8.80
2017-12-20T08:55:38.167Z,8.70
2017-12-20T08:58:07.921Z,8.60
2017-12-20T09:00:36.330Z,8.60
2017-12-20T09:03:04.633Z,8.60
2017-12-20T09:05:32.962Z,8.50
2017-12-20T09:08:01.113Z,8.50
2017-12-20T09:10:30.126Z,8.40
2017-12-20T09:12:58.450Z,8.40
2017-12-20T09:15:26.621Z,8.40
2017-12-20T09:17:55.076Z,8.30
2017-12-20T09:20:23.575Z,8.30
2017-12-20T09:22:52.023Z,8.30
2017-12-20T09:25:20.194Z,8.30
2017-12-20T09:27:48.485Z,8.40
2017-12-20T09:30:16.646Z,8.40
2017-12-20T09:32:44.814Z,8.40
2017-12-20T09:35:13.756Z,8.40
2017-12-20T09:37:42.106Z,8.40
2017-12-20T09:40:10.269Z,8.50
2017-12-20T09:42:38.555Z,8.50
2017-12-20T09:45:06.721Z,8.50
2017-12-20T09:47:34.889Z,8.50
2017-12-20T09:50:04.151Z,8.60
2017-12-20T09:52:32.327Z,8.60
2017-12-20T09:55:02.011Z,8.60
2017-12-20T09:57:30.193Z,8.60
2017-12-20T09:59:58.380Z,8.60
2017-12-20T10:02:26.573Z,8.60
2017-12-20T10:04:55.524Z,8.70
2017-12-20T10:07:23.715Z,8.60
2017-12-20T10:09:52.085Z,8.60
2017-12-20T10:12:20.698Z,8.60
2017-12-20T10:14:48.995Z,8.60
2017-12-20T10:17:18.227Z,8.60
2017-12-20T10:19:46.396Z,8.60
2017-12-20T10:22:14.572Z,8.60
2017-12-20T10:24:42.927Z,8.70
2017-12-20T10:27:11.932Z,8.70
2017-12-20T10:29:40.208Z,8.70
2017-12-20T10:32:08.368Z,8.70
2017-12-20T10:34:37.314Z,8.80
2017-12-20T10:37:05.489Z,8.80
2017-12-20T10:39:33.779Z,8.80
2017-12-20T10:42:01.944Z,8.80
2017-12-20T10:44:30.169Z,8.80
2017-12-20T10:46:58.446Z,8.70
2017-12-20T10:49:26.616Z,8.70
2017-12-20T10:51:54.980Z,8.70
2017-12-20T10:54:24.017Z,8.70
2017-12-20T10:56:52.482Z,8.70
2017-12-20T10:59:21.668Z,8.70
2017-12-20T11:01:49.817Z,8.70
2017-12-20T11:04:18.008Z,8.70
2017-12-20T11:06:46.208Z,8.70
2017-12-20T11:09:14.350Z,8.70
2017-12-20T11:11:43.303Z,8.60
2017-12-20T11:14:11.494Z,8.60
2017-12-20T11:16:39.936Z,8.60
2017-12-20T11:19:08.120Z,8.60
2017-12-20T11:21:36.283Z,8.50
2017-12-20T11:24:04.216Z,8.50
2017-12-20T11:26:33.254Z,8.50
2017-12-20T11:29:01.413Z,8.50
2017-12-20T11:31:29.589Z,8.50
2017-12-20T11:33:57.979Z,8.50
2017-12-20T11:36:26.175Z,8.50
2017-12-20T11:38:54.451Z,8.60
2017-12-20T11:41:23.008Z,8.60
2017-12-20T11:43:51.162Z,8.60
2017-12-20T11:46:19.375Z,8.70
2017-12-20T11:48:47.538Z,8.70
2017-12-20T11:51:15.723Z,8.80
2017-12-20T11:53:43.899Z,8.80
2017-12-20T11:56:12.059Z,8.80
2017-12-20T11:58:40.231Z,8.80
2017-12-20T12:01:08.243Z,8.80
2017-12-20T12:03:36.448Z,8.90
2017-12-20T12:06:05.480Z,9.00
2017-12-20T12:08:34.026Z,8.90
2017-12-20T12:11:02.302Z,9.00
2017-12-20T12:13:31.409Z,9.00
2017-12-20T12:16:00.373Z,9.00
2017-12-20T12:18:29.351Z,8.90
2017-12-20T12:20:57.549Z,8.90
2017-12-20T12:23:26.687Z,8.90
2017-12-20T12:25:54.851Z,8.90
2017-12-20T12:28:23.108Z,8.80
2017-12-20T12:30:51.264Z,8.80
2017-12-20T12:33:19.744Z,8.80
2017-12-20T12:35:48.687Z,8.80
2017-12-20T12:38:16.858Z,8.80
2017-12-20T12:40:45.023Z,8.80
2017-12-20T12:43:13.257Z,8.80
2017-12-20T12:45:41.578Z,8.80
2017-12-20T12:48:09.912Z,8.80
2017-12-20T12:50:38.132Z,8.90
2017-12-20T12:53:06.281Z,9.00
2017-12-20T12:55:35.230Z,9.00
2017-12-20T12:58:03.422Z,9.00
2017-12-20T13:00:31.592Z,8.90
2017-12-20T13:02:59.760Z,8.90
2017-12-20T13:05:27.914Z,8.90
2017-12-20T13:07:56.157Z,8.90
2017-12-20T13:10:24.364Z,8.90
2017-12-20T13:12:52.359Z,8.90
2017-12-20T13:15:21.407Z,8.90
2017-12-20T13:17:49.600Z,8.90
2017-12-20T13:20:17.817Z,8.90
2017-12-20T13:22:46.773Z,8.90
2017-12-20T13:25:14.965Z,8.80
2017-12-20T13:27:43.166Z,8.90
2017-12-20T13:30:12.439Z,9.00
2017-12-20T13:32:40.609Z,9.00
2017-12-20T13:35:09.080Z,9.00
2017-12-20T13:37:37.268Z,9.00
2017-12-20T13:40:05.447Z,9.00
2017-12-20T13:42:33.892Z,9.00
2017-12-20T13:45:02.073Z,9.00
2017-12-20T13:47:30.303Z,9.00
2017-12-20T13:49:59.240Z,9.00
2017-12-20T13:52:27.462Z,9.00
2017-12-20T13:54:55.634Z,9.00
2017-12-20T13:57:23.795Z,8.90
2017-12-20T13:59:52.357Z,8.90
2017-12-20T14:02:21.919Z,8.90
2017-12-20T14:04:50.847Z,8.90
2017-12-20T14:07:19.791Z,8.90
2017-12-20T14:09:49.092Z,8.90
2017-12-20T14:12:18.152Z,8.90
2017-12-20T14:14:46.340Z,8.90
2017-12-20T14:17:14.648Z,8.90
2017-12-20T14:19:44.189Z,8.90
2017-12-20T14:22:12.334Z,8.90
2017-12-20T14:24:40.557Z,8.90
2017-12-20T14:27:08.750Z,8.90
2017-12-20T14:29:37.048Z,8.90
2017-12-20T14:32:06.180Z,8.90
2017-12-20T14:34:34.633Z,8.90
2017-12-20T14:37:03.715Z,8.90
2017-12-20T14:39:32.982Z,8.90
2017-12-20T14:42:01.277Z,8.90
2017-12-20T14:44:29.527Z,8.90
2017-12-20T14:46:57.737Z,8.90
2017-12-20T14:49:26.076Z,8.90
2017-12-20T14:51:54.329Z,8.80
2017-12-20T14:54:22.569Z,8.90
2017-12-20T14:56:51.677Z,8.90
2017-12-20T14:59:20.689Z,8.90
2017-12-20T15:01:49.708Z,8.90
2017-12-20T15:04:17.887Z,8.90
2017-12-20T15:06:46.461Z,8.90
2017-12-20T15:09:14.789Z,8.90
2017-12-20T15:11:43.116Z,9.00
2017-12-20T15:14:14.635Z,9.00
2017-12-20T15:16:43.569Z,9.00
2017-12-20T15:19:12.016Z,9.00
2017-12-20T15:21:40.196Z,9.00
2017-12-20T15:24:08.392Z,9.00
2017-12-20T15:26:36.644Z,9.00
2017-12-20T15:29:04.892Z,9.00
2017-12-20T15:31:33.355Z,9.00
2017-12-20T15:34:01.520Z,8.90
2017-12-20T15:36:30.033Z,8.80
2017-12-20T15:38:59.281Z,8.70
2017-12-20T15:41:27.480Z,8.70
2017-12-20T15:43:55.819Z,8.70
2017-12-20T15:46:24.133Z,8.70
2017-12-20T15:48:52.477Z,8.70
2017-12-20T15:51:20.978Z,8.70
2017-12-20T15:53:49.266Z,8.70
2017-12-20T15:56:17.598Z,8.70
2017-12-20T15:58:46.626Z,8.70
2017-12-20T16:01:15.067Z,8.70
2017-12-20T16:03:44.007Z,8.80
2017-12-20T16:06:12.187Z,8.70
2017-12-20T16:08:40.354Z,8.70
2017-12-20T16:11:09.847Z,8.80
2017-12-20T16:13:38.065Z,8.80
2017-12-20T16:16:06.292Z,8.80
2017-12-20T16:18:34.815Z,8.70
2017-12-20T16:21:03.135Z,8.70
2017-12-20T16:23:31.361Z,8.70
2017-12-20T16:25:59.515Z,8.70
2017-12-20T16:28:27.675Z,8.70
2017-12-20T16:30:55.849Z,8.70
2017-12-20T16:33:24.092Z,8.70
2017-12-20T16:35:53.227Z,8.70
2017-12-20T16:38:21.539Z,8.70
2017-12-20T16:40:49.689Z,8.60
2017-12-20T16:43:17.673Z,8.60
2017-12-20T16:45:46.021Z,8.60
2017-12-20T16:48:14.188Z,8.60
2017-12-20T16:50:42.374Z,8.60
2017-12-20T16:53:10.604Z,8.60
2017-12-20T16:55:39.109Z,8.60
2017-12-20T16:58:08.050Z,8.60
2017-12-20T17:00:36.478Z,8.60
2017-12-20T17:03:04.651Z,8.50
2017-12-20T17:05:33.576Z,8.50
2017-12-20T17:08:01.755Z,8.60
2017-12-20T17:10:30.104Z,8.60
2017-12-20T17:13:00.737Z,8.60
2017-12-20T17:15:29.575Z,8.60
2017-12-20T17:17:58.578Z,8.50
2017-12-20T17:20:28.620Z,8.50
2017-12-20T17:22:58.139Z,8.60
2017-12-20T17:25:27.899Z,8.50
2017-12-20T17:27:56.590Z,8.50
2017-12-20T17:30:25.513Z,8.50
2017-12-20T17:32:55.390Z,8.50
2017-12-20T17:35:24.066Z,8.60
2017-12-20T17:37:54.656Z,8.60
2017-12-20T17:40:27.923Z,8.60
2017-12-20T17:42:58.204Z,8.50
2017-12-20T17:45:29.387Z,8.60
2017-12-20T17:47:59.155Z,8.60
2017-12-20T17:50:27.826Z,8.60
2017-12-20T17:52:57.218Z,8.60
2017-12-20T17:55:27.012Z,8.60
2017-12-20T17:57:56.514Z,8.60
2017-12-20T18:00:25.226Z,8.60
2017-12-20T18:02:55.640Z,8.60
2017-12-20T18:05:25.098Z,8.70
2017-12-20T18:07:54.219Z,8.70
2017-12-20T18:10:25.427Z,8.70
2017-12-20T18:12:54.030Z,8.70
2017-12-20T18:15:23.708Z,8.70
2017-12-20T18:17:53.299Z,8.70
2017-12-20T18:20:23.088Z,8.80
2017-12-20T18:22:52.736Z,8.80
2017-12-20T18:25:21.822Z,8.80
2017-12-20T18:27:53.709Z,8.80
2017-12-20T18:30:22.705Z,8.80
2017-12-20T18:32:51.015Z,8.70
2017-12-20T18:35:20.073Z,8.80
2017-12-20T18:37:49.251Z,8.70
2017-12-20T18:40:18.061Z,8.70
2017-12-20T18:42:46.713Z,8.70
2017-12-20T18:45:15.946Z,8.70
2017-12-20T18:47:44.508Z,8.70
2017-12-20T18:50:12.916Z,8.80
2017-12-20T18:52:41.326Z,8.80
2017-12-20T18:55:10.257Z,8.80
2017-12-20T18:57:38.976Z,8.80
2017-12-20T19:00:07.630Z,8.80
2017-12-20T19:02:35.836Z,8.70
2017-12-20T19:05:04.176Z,8.70
2017-12-20T19:07:36.724Z,8.70
2017-12-20T19:10:04.931Z,8.70
2017-12-20T19:12:33.253Z,8.70
2017-12-20T19:15:01.845Z,8.70
2017-12-20T19:17:30.033Z,8.70
2017-12-20T19:19:59.093Z,8.70
2017-12-20T19:22:27.398Z,8.70
2017-12-20T19:24:55.762Z,8.70
2017-12-20T19:27:24.133Z,8.70
2017-12-20T19:29:52.711Z,8.70
2017-12-20T19:32:21.424Z,8.70
2017-12-20T19:34:49.630Z,8.80
2017-12-20T19:37:18.787Z,8.80
2017-12-20T19:39:48.447Z,8.80
2017-12-20T19:42:17.982Z,8.80
2017-12-20T19:44:54.670Z,8.80
2017-12-20T19:47:23.303Z,8.80
2017-12-20T19:49:52.372Z,8.80
2017-12-20T19:52:20.807Z,8.80
2017-12-20T19:54:49.297Z,8.80
2017-12-20T19:57:18.262Z,8.80
2017-12-20T19:59:47.005Z,8.80
2017-12-20T20:02:15.563Z,8.80
2017-12-20T20:04:44.067Z,8.80
2017-12-20T20:07:12.745Z,8.90
2017-12-20T20:09:40.928Z,8.90
2017-12-20T20:12:09.424Z,8.80
2017-12-20T20:14:37.972Z,8.80
2017-12-20T20:17:06.629Z,8.80
2017-12-20T20:19:34.936Z,8.80
2017-12-20T20:22:03.615Z,8.80
2017-12-20T20:24:31.897Z,8.80
2017-12-20T20:27:00.288Z,8.80
2017-12-20T20:29:28.716Z,8.80
2017-12-20T20:31:56.922Z,8.80
2017-12-20T20:34:25.461Z,8.70
2017-12-20T20:36:54.734Z,8.70
2017-12-20T20:39:23.105Z,8.70
2017-12-20T20:41:51.399Z,8.80
2017-12-20T20:44:20.876Z,8.80
2017-12-20T20:46:49.437Z,8.80
2017-12-20T20:49:17.869Z,8.70
2017-12-20T20:51:46.053Z,8.70
2017-12-20T20:54:14.713Z,8.70
2017-12-20T20:56:42.934Z,8.70
2017-12-20T20:59:11.952Z,8.70
2017-12-20T21:01:43.796Z,8.70
2017-12-20T21:04:11.976Z,8.70
2017-12-20T21:06:40.910Z,8.70
2017-12-20T21:09:09.094Z,8.70
2017-12-20T21:11:37.799Z,8.70
2017-12-20T21:14:06.438Z,8.70
2017-12-20T21:16:35.026Z,8.80
2017-12-20T21:19:03.240Z,8.80
2017-12-20T21:21:31.406Z,8.80
2017-12-20T21:24:00.164Z,8.80
2017-12-20T21:26:28.185Z,8.80
2017-12-20T21:28:57.460Z,8.80
2017-12-20T21:31:25.947Z,8.80
2017-12-20T21:33:54.500Z,8.80
2017-12-20T21:36:22.882Z,8.80
2017-12-20T21:38:51.044Z,8.80
2017-12-20T21:41:19.339Z,8.80
2017-12-20T21:43:47.965Z,8.80
2017-12-20T21:46:16.166Z,8.90
2017-12-20T21:48:44.709Z,8.90
2017-12-20T21:51:12.894Z,8.90
2017-12-20T21:53:41.084Z,8.90
2017-12-20T21:56:10.037Z,9.00
2017-12-20T21:58:38.498Z,9.00
2017-12-20T22:01:07.925Z,9.00
2017-12-20T22:03:36.120Z,9.00
2017-12-20T22:06:05.102Z,9.10
2017-12-20T22:08:33.300Z,9.10
2017-12-20T22:11:01.550Z,9.10
2017-12-20T22:13:29.871Z,9.10
2017-12-20T22:15:58.824Z,9.10
2017-12-20T22:18:26.969Z,9.10
2017-12-20T22:20:55.233Z,9.10
2017-12-20T22:23:23.382Z,9.20
2017-12-20T22:25:52.385Z,9.10
2017-12-20T22:28:20.563Z,9.10
2017-12-20T22:30:49.536Z,9.10
2017-12-20T22:33:18.538Z,9.10
2017-12-20T22:35:47.642Z,9.10
2017-12-20T22:38:16.568Z,9.10
2017-12-20T22:40:44.886Z,9.10
2017-12-20T22:43:13.054Z,9.10
2017-12-20T22:45:41.247Z,9.10
2017-12-20T22:48:10.194Z,9.10
2017-12-20T22:50:38.498Z,9.10
2017-12-20T22:53:06.681Z,9.10
2017-12-20T22:55:34.978Z,9.20
2017-12-20T22:58:04.163Z,9.10
2017-12-20T23:00:32.923Z,9.10
2017-12-20T23:03:01.146Z,9.00
2017-12-20T23:05:29.315Z,9.10
2017-12-20T23:07:58.519Z,9.00
2017-12-20T23:10:27.180Z,9.00
2017-12-20T23:12:55.503Z,9.00
2017-12-20T23:15:23.658Z,9.00
2017-12-20T23:17:52.029Z,9.10
2017-12-20T23:20:20.985Z,9.10
2017-12-20T23:22:49.141Z,9.00
2017-12-20T23:25:17.348Z,9.10
2017-12-20T23:27:45.669Z,9.10
2017-12-20T23:30:13.996Z,9.10
2017-12-20T23:32:42.175Z,9.10
2017-12-20T23:35:10.351Z,9.10
2017-12-20T23:37:38.699Z,9.10
2017-12-20T23:40:06.853Z,9.10
2017-12-20T23:42:35.116Z,9.10
2017-12-20T23:45:03.315Z,9.10
2017-12-20T23:47:31.471Z,9.10
2017-12-20T23:49:59.839Z,9.20
2017-12-20T23:52:27.994Z,9.10
2017-12-20T23:54:56.951Z,9.20
2017-12-20T23:57:25.122Z,9.20
2017-12-20T23:59:53.484Z,9.20
